Time;durP1;ratioP1;P1;durP2;ratioP2;P2;SDS_P1;SDS_P2;PMS_P1;PMS_P2;Temp;Humidity;BMP_temperature;BMP_pressure;BME280_temperature;BME280_humidity;BME280_pressure;Samples;Min_cycle;Max_cycle;Signal;HPM_P1;HPM_P2
2022/03/26 00:02:23;;;;;;;;;;;5.10;99.90;;;3.44;93.80;102671.22;2566490;30;138340;-43
2022/03/26 00:04:51;;;;;;;;;;;5.10;99.90;;;3.36;93.52;102662.88;2568868;30;138200;-41
2022/03/26 00:07:18;;;;;;;;;;;5.00;99.90;;;3.34;94.09;102664.81;2570914;30;137025;-41
2022/03/26 00:09:45;;;;;;;;;;;4.90;99.90;;;3.33;94.20;102668.50;2568930;30;138319;-41
2022/03/26 00:12:13;;;;;;;;;;;4.90;99.90;;;3.36;94.63;102667.38;2568394;30;137343;-41
2022/03/26 00:14:40;;;;;;;;;;;4.90;99.90;;;3.33;94.29;102670.31;2569516;30;138908;-41
2022/03/26 00:17:08;;;;;;;;;;;4.90;99.90;;;3.33;94.06;102664.94;2569195;30;137063;-43
2022/03/26 00:19:35;;;;;;;;;;;4.90;99.90;;;3.30;94.30;102668.72;2567259;30;137378;-41
2022/03/26 00:22:03;;;;;;;;;;;4.90;99.90;;;3.25;94.80;102674.50;2570085;30;137292;-42
2022/03/26 00:24:30;;;;;;;;;;;4.90;99.90;;;3.24;94.72;102664.69;2569967;30;138485;-41
2022/03/26 00:26:58;;;;;;;;;;;4.80;99.90;;;3.25;95.31;102669.09;2570399;30;137070;-41
2022/03/26 00:29:25;;;;;;;;;;;4.90;99.90;;;3.23;95.10;102667.47;2570312;30;138562;-41
2022/03/26 00:31:52;;;;;;;;;;;4.80;99.90;;;3.19;94.61;102666.00;2569771;30;137351;-41
2022/03/26 00:34:20;;;;;;;;;;;4.80;99.90;;;3.20;94.78;102668.59;2569393;30;137308;-42
2022/03/26 00:36:47;;;;;;;;;;;4.80;99.90;;;3.16;94.59;102665.25;2570817;30;137047;-41
2022/03/26 00:39:15;;;;;;;;;;;4.80;99.90;;;3.11;94.25;102663.88;2570599;30;138222;-41
2022/03/26 00:41:42;;;;;;;;;;;4.70;99.90;;;3.09;94.40;102665.84;2568613;30;137298;-41
2022/03/26 00:44:10;;;;;;;;;;;4.70;99.90;;;3.04;94.43;102659.94;2572491;30;138393;-42
2022/03/26 00:46:37;;;;;;;;;;;4.70;99.90;;;3.01;94.24;102659.22;2570970;30;137935;-41
2022/03/26 00:49:04;;;;;;;;;;;4.70;99.90;;;2.95;94.23;102658.81;2568059;30;138947;-41
2022/03/26 00:51:32;;;;;;;;;;;4.60;99.90;;;2.90;93.93;102656.44;2570264;30;137450;-41
2022/03/26 00:53:59;;;;;;;;;;;4.50;99.90;;;2.81;93.91;102649.94;2570771;30;138450;-41
2022/03/26 00:56:27;;;;;;;;;;;4.40;99.90;;;2.73;94.29;102646.97;2569942;30;136970;-41
2022/03/26 00:58:54;;;;;;;;;;;4.30;99.90;;;2.72;95.08;102648.81;2568189;30;137324;-42
2022/03/26 01:01:21;;;;;;;;;;;4.30;99.90;;;2.65;95.08;102647.56;2568999;30;137781;-41
2022/03/26 01:03:49;;;;;;;;;;;4.30;99.90;;;2.63;95.24;102643.25;2569771;30;138073;-41
2022/03/26 01:06:18;;;;;;;;;;;4.30;99.90;;;2.59;95.23;102648.00;2566504;30;137078;-40
2022/03/26 01:08:46;;;;;;;;;;;4.20;99.90;;;2.57;95.41;102636.47;2569099;30;138311;-42
2022/03/26 01:11:14;;;;;;;;;;;4.20;99.90;;;2.55;95.51;102631.22;2570329;30;137173;-41
2022/03/26 01:13:41;;;;;;;;;;;4.20;99.90;;;2.51;95.35;102640.47;2580395;30;137001;-40
2022/03/26 01:16:09;;;;;;;;;;;4.10;99.90;;;2.42;95.19;102631.28;2568287;30;137081;-39
2022/03/26 01:18:36;;;;;;;;;;;4.10;99.90;;;2.37;95.44;102636.13;2568678;30;138961;-41
2022/03/26 01:21:04;;;;;;;;;;;4.00;99.90;;;2.31;95.36;102636.56;2568083;30;137302;-40
2022/03/26 01:23:32;;;;;;;;;;;4.00;99.90;;;2.24;95.50;102644.25;2568764;30;138446;-40
2022/03/26 01:26:04;;;;;;;;;;;3.90;99.90;;;2.21;95.65;102640.94;2568006;30;137291;-40
2022/03/26 01:28:31;;;;;;;;;;;3.80;99.90;;;2.18;96.11;102641.16;2568412;30;139053;-40
2022/03/26 01:31:00;;;;;;;;;;;3.80;99.90;;;2.12;96.57;102643.34;2569380;30;136915;-41
2022/03/26 01:33:27;;;;;;;;;;;3.80;99.90;;;2.12;96.95;102637.94;2568112;30;137292;-40
2022/03/26 01:35:55;;;;;;;;;;;3.80;99.90;;;2.12;96.75;102631.69;2567989;30;137330;-39
2022/03/26 01:38:22;;;;;;;;;;;3.80;99.90;;;2.12;96.59;102635.25;2568962;30;138289;-40
2022/03/26 01:40:51;;;;;;;;;;;3.70;99.90;;;2.11;96.81;102633.50;2569114;30;137118;-40
2022/03/26 01:43:18;;;;;;;;;;;3.80;99.90;;;2.04;96.57;102634.94;2568474;30;139310;-39
2022/03/26 01:45:46;;;;;;;;;;;3.70;99.90;;;1.95;96.77;102627.53;2569534;30;136761;-40
2022/03/26 01:48:13;;;;;;;;;;;3.60;99.90;;;2.01;97.36;102633.34;2567128;30;139156;-39
2022/03/26 01:50:42;;;;;;;;;;;3.70;99.90;;;2.01;97.86;102643.25;2568009;30;138085;-40
2022/03/26 01:53:09;;;;;;;;;;;3.60;99.90;;;1.98;97.97;102644.31;2567109;30;138639;-40
2022/03/26 01:55:39;;;;;;;;;;;3.60;99.90;;;1.97;98.23;102653.38;2567836;30;136516;-39
2022/03/26 01:58:08;;;;;;;;;;;3.60;99.90;;;1.94;97.96;102647.34;2569064;30;137874;-40
2022/03/26 02:00:36;;;;;;;;;;;3.60;99.90;;;1.94;98.48;102650.91;2568397;30;138170;-40
2022/03/26 02:03:04;;;;;;;;;;;3.60;99.90;;;1.95;98.40;102649.06;2568505;30;138059;-40
2022/03/26 02:05:31;;;;;;;;;;;3.60;99.90;;;1.85;98.25;102640.81;2569883;30;136917;-40
2022/03/26 02:07:59;;;;;;;;;;;3.60;99.90;;;1.89;98.11;102654.91;2568131;30;139110;-40
2022/03/26 02:10:26;;;;;;;;;;;3.60;99.90;;;1.85;97.68;102647.03;2565386;30;138021;-39
2022/03/26 02:12:54;;;;;;;;;;;3.50;99.90;;;1.79;97.71;102641.25;2568266;30;137365;-39
2022/03/26 02:15:21;;;;;;;;;;;3.50;99.90;;;1.75;97.87;102653.22;2568380;30;137942;-41
2022/03/26 02:17:48;;;;;;;;;;;3.40;99.90;;;1.74;98.77;102656.88;2567610;30;138366;-40
2022/03/26 02:20:17;;;;;;;;;;;3.40;99.90;;;1.74;98.76;102657.72;2568423;30;137195;-40
2022/03/26 02:22:44;;;;;;;;;;;3.40;99.90;;;1.69;98.50;102654.50;2567766;30;139063;-40
2022/03/26 02:25:12;;;;;;;;;;;3.30;99.90;;;1.64;98.67;102668.25;2568215;30;137084;-41
2022/03/26 02:27:39;;;;;;;;;;;3.30;99.90;;;1.64;99.12;102662.03;2567595;30;138327;-39
2022/03/26 02:30:07;;;;;;;;;;;3.30;99.90;;;1.65;99.44;102658.38;2567800;30;137023;-40
2022/03/26 02:32:34;;;;;;;;;;;3.30;99.90;;;1.61;99.69;102651.50;2565813;30;138249;-40
2022/03/26 02:35:02;;;;;;;;;;;3.20;99.90;;;1.53;99.68;102650.19;2568007;30;136692;-40
2022/03/26 02:37:31;;;;;;;;;;;3.20;99.90;;;1.50;99.90;102658.47;2568511;30;137330;-41
2022/03/26 02:40:02;;;;;;;;;;;3.10;99.90;;;1.49;100.00;102651.38;2567774;30;136833;-39
2022/03/26 02:42:31;;;;;;;;;;;3.20;99.90;;;1.48;100.00;102646.13;2568660;30;138458;-41
2022/03/26 02:44:59;;;;;;;;;;;3.10;99.90;;;1.49;100.00;102659.44;2567477;30;137412;-39
2022/03/26 02:47:26;;;;;;;;;;;3.10;99.90;;;1.49;100.00;102655.91;2566875;30;138181;-40
2022/03/26 02:49:54;;;;;;;;;;;3.20;99.90;;;1.46;100.00;102654.28;2568056;30;136781;-40
2022/03/26 02:52:22;;;;;;;;;;;3.10;99.90;;;1.40;100.00;102649.34;2568889;30;137241;-40
2022/03/26 02:54:50;;;;;;;;;;;3.00;99.90;;;1.33;100.00;102648.06;2567794;30;137351;-40
2022/03/26 02:57:18;;;;;;;;;;;3.00;99.90;;;1.28;100.00;102646.50;2568157;30;139087;-39
2022/03/26 02:59:46;;;;;;;;;;;3.00;99.90;;;1.29;100.00;102644.69;2568036;30;136855;-40
2022/03/26 03:02:13;;;;;;;;;;;3.00;99.90;;;1.29;100.00;102642.00;2567893;30;139259;-40
2022/03/26 03:04:41;;;;;;;;;;;3.00;99.90;;;1.27;100.00;102644.78;2567327;30;137519;-40
2022/03/26 03:07:08;;;;;;;;;;;3.00;99.90;;;1.27;100.00;102644.78;2568302;30;138532;-40
2022/03/26 03:09:35;;;;;;;;;;;2.90;99.90;;;1.27;100.00;102649.34;2568258;30;137169;-40
2022/03/26 03:12:03;;;;;;;;;;;2.90;99.90;;;1.25;100.00;102643.19;2566905;30;137471;-40
2022/03/26 03:14:31;;;;;;;;;;;2.90;99.90;;;1.24;100.00;102641.47;2568537;30;137206;-40
2022/03/26 03:16:58;;;;;;;;;;;2.90;99.90;;;1.22;100.00;102644.25;2568466;30;138157;-40
2022/03/26 03:19:25;;;;;;;;;;;2.90;99.90;;;1.17;100.00;102646.41;2568160;30;137699;-40
2022/03/26 03:21:53;;;;;;;;;;;2.90;99.90;;;1.15;100.00;102648.34;2567779;30;138253;-40
2022/03/26 03:24:21;;;;;;;;;;;2.80;99.90;;;1.13;100.00;102645.75;2568105;30;137916;-40
2022/03/26 03:26:48;;;;;;;;;;;2.80;99.90;;;1.11;100.00;102649.53;2567947;30;138180;-40
2022/03/26 03:29:16;;;;;;;;;;;2.80;99.90;;;1.04;100.00;102649.06;2566739;30;137379;-39
2022/03/26 03:31:47;;;;;;;;;;;2.80;99.90;;;1.00;100.00;102653.78;2568937;30;137089;-40
2022/03/26 03:34:14;;;;;;;;;;;2.70;99.90;;;1.03;100.00;102658.13;2568408;30;137032;-40
2022/03/26 03:36:42;;;;;;;;;;;2.70;99.90;;;1.01;100.00;102654.66;2568815;30;138278;-40
2022/03/26 03:39:09;;;;;;;;;;;2.70;99.90;;;0.98;100.00;102657.56;2567822;30;137204;-40
2022/03/26 03:41:37;;;;;;;;;;;2.70;99.90;;;0.97;100.00;102658.53;2564704;30;138277;-40
2022/03/26 03:44:05;;;;;;;;;;;2.60;99.90;;;0.99;100.00;102652.06;2567976;30;137026;-39
2022/03/26 03:46:33;;;;;;;;;;;2.60;99.90;;;0.99;100.00;102654.75;2569214;30;138344;-40
2022/03/26 03:49:00;;;;;;;;;;;2.60;99.90;;;0.99;100.00;102662.81;2568527;30;137146;-40
2022/03/26 03:51:28;;;;;;;;;;;2.70;99.90;;;0.99;100.00;102660.13;2565955;30;138791;-40
2022/03/26 03:53:55;;;;;;;;;;;2.60;99.90;;;1.04;100.00;102658.94;2568614;30;137069;-40
2022/03/26 03:56:23;;;;;;;;;;;2.70;99.90;;;1.03;100.00;102658.13;2570227;30;138391;-39
2022/03/26 03:58:50;;;;;;;;;;;2.70;99.90;;;0.99;100.00;102652.06;2566188;30;137543;-39
2022/03/26 04:01:18;;;;;;;;;;;2.70;99.90;;;1.03;100.00;102651.84;2568819;30;138341;-40
2022/03/26 04:03:45;;;;;;;;;;;2.70;99.90;;;1.03;100.00;102654.53;2568744;30;137009;-40
2022/03/26 04:06:13;;;;;;;;;;;2.70;99.90;;;1.00;100.00;102651.09;2566266;30;138921;-40
2022/03/26 04:08:40;;;;;;;;;;;2.70;99.90;;;0.96;100.00;102651.44;2568823;30;137179;-39
2022/03/26 04:11:08;;;;;;;;;;;2.60;99.90;;;0.91;100.00;102659.81;2567179;30;138209;-39
2022/03/26 04:13:36;;;;;;;;;;;2.60;99.90;;;0.90;100.00;102657.19;2568813;30;137803;-40
2022/03/26 04:16:04;;;;;;;;;;;2.60;99.90;;;0.87;100.00;102652.91;2567618;30;138536;-39
2022/03/26 04:18:32;;;;;;;;;;;2.60;99.90;;;0.86;100.00;102656.56;2568673;30;137977;-39
2022/03/26 04:21:00;;;;;;;;;;;2.60;99.90;;;0.79;100.00;102649.88;2566581;30;138079;-39
2022/03/26 04:23:27;;;;;;;;;;;2.50;99.90;;;0.74;100.00;102654.69;2568621;30;137016;-40
2022/03/26 04:25:55;;;;;;;;;;;2.40;99.90;;;0.70;100.00;102654.91;2569834;30;138279;-40
2022/03/26 04:28:22;;;;;;;;;;;2.40;99.90;;;0.71;100.00;102658.47;2569107;30;137385;-40
2022/03/26 04:30:49;;;;;;;;;;;2.40;99.90;;;0.72;100.00;102657.50;2569276;30;138432;-40
2022/03/26 04:33:17;;;;;;;;;;;2.40;99.90;;;0.69;100.00;102653.19;2567487;30;137256;-40
2022/03/26 04:35:44;;;;;;;;;;;2.40;99.90;;;0.69;100.00;102655.88;2568141;30;138283;-40
2022/03/26 04:38:12;;;;;;;;;;;2.40;99.90;;;0.69;100.00;102655.88;2569230;30;137392;-40
2022/03/26 04:40:39;;;;;;;;;;;2.40;99.90;;;0.70;100.00;102659.44;2567535;30;137951;-39
2022/03/26 04:43:07;;;;;;;;;;;2.40;99.90;;;0.69;100.00;102655.88;2568824;30;137121;-39
2022/03/26 04:45:34;;;;;;;;;;;2.40;99.90;;;0.66;100.00;102653.38;2568356;30;138185;-39
2022/03/26 04:48:02;;;;;;;;;;;2.30;99.90;;;0.64;100.00;102654.44;2569643;30;137044;-41
2022/03/26 04:50:29;;;;;;;;;;;2.30;99.90;;;0.62;100.00;102659.94;2568519;30;137525;-40
2022/03/26 04:52:57;;;;;;;;;;;2.30;99.90;;;0.59;100.00;102653.88;2568351;30;136776;-40
2022/03/26 04:55:24;;;;;;;;;;;2.30;99.90;;;0.59;100.00;102652.09;2569522;30;137161;-40
2022/03/26 04:57:52;;;;;;;;;;;2.30;99.90;;;0.60;100.00;102655.59;2568867;30;136849;-40
2022/03/26 05:00:20;;;;;;;;;;;2.30;99.90;;;0.61;100.00;102655.53;2568211;30;137373;-40
2022/03/26 05:02:47;;;;;;;;;;;2.30;99.90;;;0.62;100.00;102659.06;2566894;30;138170;-39
2022/03/26 05:05:15;;;;;;;;;;;2.30;99.90;;;0.65;100.00;102658.84;2567903;30;137408;-41
2022/03/26 05:07:46;;;;;;;;;;;2.30;99.90;;;0.67;100.00;102660.47;2565753;30;137272;-40
2022/03/26 05:10:22;;;;;;;;;;;2.30;99.90;;;0.71;100.00;102658.47;2568865;30;139105;-39
2022/03/26 05:12:51;;;;;;;;;;;2.30;99.90;;;0.75;100.00;102648.34;2568581;30;137282;-39
2022/03/26 05:15:21;;;;;;;;;;;2.40;99.90;;;0.72;100.00;102660.19;2565976;30;137936;-39
2022/03/26 05:17:50;;;;;;;;;;;2.40;99.90;;;0.64;100.00;102651.75;2567203;30;137142;-39
2022/03/26 05:20:18;;;;;;;;;;;2.30;99.90;;;0.61;100.00;102665.38;2569069;30;138336;-39
2022/03/26 05:22:48;;;;;;;;;;;2.30;99.90;;;0.55;100.00;102664.00;2568546;30;137146;-40
2022/03/26 05:25:17;;;;;;;;;;;2.30;99.90;;;0.57;100.00;102673.66;2568076;30;138945;-40
2022/03/26 05:27:46;;;;;;;;;;;2.20;99.90;;;0.58;100.00;102666.47;2567601;30;137576;-40
2022/03/26 05:30:14;;;;;;;;;;;2.30;99.90;;;0.61;100.00;102670.75;2568290;30;138252;-39
2022/03/26 05:32:42;;;;;;;;;;;2.30;99.90;;;0.61;100.00;102684.19;2565297;30;137255;-40
2022/03/26 05:35:16;;;;;;;;;;;2.30;99.90;;;0.56;100.00;102676.47;2568739;30;137277;-40
2022/03/26 05:37:46;;;;;;;;;;;2.30;99.90;;;0.63;100.00;102682.28;2569441;30;137101;-41
2022/03/26 05:40:16;;;;;;;;;;;2.30;99.90;;;0.63;100.00;102688.53;2569071;30;138422;-39
2022/03/26 05:42:45;;;;;;;;;;;2.30;99.90;;;0.61;100.00;102686.88;2569465;30;136947;-40
2022/03/26 05:45:14;;;;;;;;;;;2.30;99.90;;;0.62;100.00;102685.91;2568154;30;138501;-40
2022/03/26 05:47:42;;;;;;;;;;;2.20;99.90;;;0.65;100.00;102704.53;2569251;30;137270;-39
2022/03/26 05:50:12;;;;;;;;;;;2.30;99.90;;;0.67;100.00;102703.47;2570025;30;137136;-40
2022/03/26 05:52:40;;;;;;;;;;;2.30;99.90;;;0.67;100.00;102710.69;2567888;30;137145;-40
2022/03/26 05:55:08;;;;;;;;;;;2.30;99.90;;;0.66;100.00;102698.19;2568414;30;138218;-40
2022/03/26 05:57:36;;;;;;;;;;;2.30;99.90;;;0.73;100.00;102722.84;2568186;30;137999;-40
2022/03/26 06:00:05;;;;;;;;;;;2.30;99.90;;;0.76;100.00;102718.13;2567858;30;138366;-39
2022/03/26 06:02:36;;;;;;;;;;;2.40;99.90;;;0.83;100.00;102718.59;2568720;30;136956;-40
2022/03/26 06:05:06;;;;;;;;;;;2.40;99.90;;;0.90;100.00;102719.91;2568743;30;138254;-40
2022/03/26 06:07:33;;;;;;;;;;;2.50;99.90;;;0.91;100.00;102718.06;2568685;30;137835;-39
2022/03/26 06:10:01;;;;;;;;;;;2.50;99.90;;;1.02;100.00;102722.72;2566118;30;138728;-39
2022/03/26 06:12:28;;;;;;;;;;;2.60;99.90;;;1.07;100.00;102726.84;2567493;30;137156;-39
2022/03/26 06:14:56;;;;;;;;;;;2.60;99.90;;;1.17;100.00;102724.38;2568748;30;139116;-39
2022/03/26 06:17:23;;;;;;;;;;;2.70;99.90;;;1.28;100.00;102726.34;2569038;30;136881;-39
2022/03/26 06:19:51;;;;;;;;;;;2.80;99.90;;;1.43;100.00;102737.88;2568770;30;138502;-40
2022/03/26 06:22:18;;;;;;;;;;;2.90;99.90;;;1.53;100.00;102728.22;2566679;30;137278;-40
2022/03/26 06:24:46;;;;;;;;;;;3.00;99.90;;;1.63;100.00;102731.13;2568158;30;138853;-39
2022/03/26 06:27:15;;;;;;;;;;;3.10;99.90;;;1.72;100.00;102740.41;2567522;30;137996;-39
2022/03/26 06:29:42;;;;;;;;;;;3.20;99.90;;;1.84;100.00;102731.44;2568940;30;138443;-39
2022/03/26 06:32:10;;;;;;;;;;;3.30;99.90;;;1.97;100.00;102736.81;2567591;30;136675;-40
2022/03/26 06:34:37;;;;;;;;;;;3.40;99.90;;;2.05;100.00;102730.06;2568303;30;139245;-40
2022/03/26 06:37:05;;;;;;;;;;;3.50;99.90;;;2.14;100.00;102738.34;2567616;30;136968;-40
2022/03/26 06:39:32;;;;;;;;;;;3.60;99.90;;;2.32;100.00;102740.66;2567087;30;138126;-40
2022/03/26 06:42:00;;;;;;;;;;;3.70;99.90;;;2.49;100.00;102733.19;2567391;30;137078;-40
2022/03/26 06:44:27;;;;;;;;;;;3.90;99.90;;;2.68;100.00;102738.97;2568984;30;138299;-40
2022/03/26 06:46:54;;;;;;;;;;;4.00;99.90;;;2.83;100.00;102745.06;2566060;30;137344;-40
2022/03/26 06:49:22;;;;;;;;;;;4.20;99.90;;;2.95;100.00;102734.31;2569402;30;138296;-40
2022/03/26 06:51:49;;;;;;;;;;;4.30;99.90;;;3.15;100.00;102743.59;2569216;30;137917;-40
2022/03/26 06:54:18;;;;;;;;;;;4.50;99.90;;;3.30;100.00;102742.44;2567935;30;140108;-40
2022/03/26 06:56:45;;;;;;;;;;;4.60;99.90;;;3.51;100.00;102746.28;2568277;30;137963;-40
2022/03/26 06:59:17;;;;;;;;;;;4.80;99.90;;;3.68;100.00;102759.34;2567788;30;139101;-40
2022/03/26 07:01:45;;;;;;;;;;;5.00;99.90;;;3.89;100.00;102756.81;2567306;30;137288;-40
2022/03/26 07:04:17;;;;;;;;;;;5.10;99.90;;;4.22;100.00;102765.06;2568609;30;138162;-41
2022/03/26 07:06:44;;;;;;;;;;;5.40;99.90;;;4.51;100.00;102771.78;2566688;30;137215;-40
2022/03/26 07:09:12;;;;;;;;;;;5.60;99.90;;;4.92;100.00;102769.41;2568200;30;137866;-40
2022/03/26 07:11:39;;;;;;;;;;;6.00;99.90;;;5.11;99.38;102766.84;2568842;30;137082;-40
2022/03/26 07:14:07;;;;;;;;;;;6.30;99.90;;;4.95;96.54;102696.94;2574708;30;138461;-42
2022/03/26 07:16:34;;;;;;;;;;;6.50;99.90;;;5.58;94.40;102771.97;2569370;30;136885;-42
2022/03/26 07:19:02;;;;;;;;;;;6.70;99.90;;;5.77;93.87;102770.34;2570986;30;138119;-41
2022/03/26 07:21:31;;;;;;;;;;;6.90;99.90;;;5.97;94.06;102763.22;2568561;30;137057;-41
2022/03/26 07:23:59;;;;;;;;;;;7.10;99.90;;;6.16;92.99;102773.31;2571155;30;138115;-41
2022/03/26 07:26:26;;;;;;;;;;;7.30;99.90;;;6.32;91.45;102771.94;2569525;30;136855;-42
2022/03/26 07:28:55;;;;;;;;;;;7.40;99.90;;;6.53;89.69;102771.91;2568122;30;137405;-41
2022/03/26 07:31:23;;;;;;;;;;;7.60;99.90;;;6.78;87.96;102772.41;2569719;30;138449;-41
2022/03/26 07:33:51;;;;;;;;;;;7.80;99.90;;;6.97;87.39;102774.28;2570648;30;137814;-41
2022/03/26 07:36:18;;;;;;;;;;;8.00;99.90;;;7.19;87.24;102778.56;2569358;30;137071;-41
2022/03/26 07:38:46;;;;;;;;;;;8.30;99.90;;;7.40;85.43;102768.56;2568111;30;137812;-41
2022/03/26 07:41:13;;;;;;;;;;;8.50;99.90;;;7.56;85.98;102771.56;2569091;30;138146;-41
2022/03/26 07:43:41;;;;;;;;;;;8.60;99.90;;;7.73;82.34;102769.13;2568396;30;138223;-42
2022/03/26 07:46:08;;;;;;;;;;;8.80;99.90;;;7.94;81.89;102770.75;2569621;30;137318;-41
2022/03/26 07:48:36;;;;;;;;;;;9.00;99.90;;;8.07;81.14;102760.44;2570806;30;138187;-41
2022/03/26 07:51:03;;;;;;;;;;;9.10;99.90;;;8.28;79.55;102773.81;2567887;30;137191;-41
2022/03/26 07:53:31;;;;;;;;;;;9.30;99.90;;;8.41;79.78;102761.75;2568660;30;138401;-41
2022/03/26 07:55:58;;;;;;;;;;;9.40;99.90;;;8.56;79.24;102767.56;2568479;30;137945;-41
2022/03/26 07:58:26;;;;;;;;;;;9.60;99.90;;;8.72;79.46;102773.19;2570326;30;138222;-41
2022/03/26 08:00:53;;;;;;;;;;;9.70;99.90;;;8.82;77.94;102780.44;2568970;30;137920;-42
2022/03/26 08:03:21;;;;;;;;;;;9.80;99.90;;;8.89;76.40;102770.66;2569039;30;137765;-41
2022/03/26 08:05:48;;;;;;;;;;;10.00;99.90;;;9.03;76.63;102772.88;2568073;30;137080;-41
2022/03/26 08:08:16;;;;;;;;;;;10.10;99.90;;;9.18;75.71;102777.75;2569970;30;138576;-42
2022/03/26 08:10:43;;;;;;;;;;;10.20;99.90;;;9.33;74.20;102778.06;2569114;30;137922;-41
2022/03/26 08:13:11;;;;;;;;;;;10.30;99.90;;;9.45;73.23;102778.69;2570502;30;138209;-41
2022/03/26 08:15:38;;;;;;;;;;;10.40;99.90;;;9.60;72.88;102774.38;2569272;30;137152;-43
2022/03/26 08:18:07;;;;;;;;;;;10.60;99.90;;;9.85;74.29;102776.44;2568448;30;138217;-41
2022/03/26 08:20:35;;;;;;;;;;;10.80;99.90;;;10.03;74.20;102779.09;2566987;30;137079;-42
2022/03/26 08:23:02;;;;;;;;;;;10.90;99.90;;;10.21;73.52;102777.16;2569678;30;138359;-42
2022/03/26 08:28:17;;;;;;;;;;;11.30;99.90;;;10.55;71.00;102777.34;2567589;30;138514;-41
2022/03/26 08:30:44;;;;;;;;;;;11.50;99.90;;;10.65;68.32;102783.53;2567011;30;136991;-42
2022/03/26 08:33:12;;;;;;;;;;;11.60;99.90;;;10.76;69.79;102779.66;2568099;30;138306;-41
2022/03/26 08:35:41;;;;;;;;;;;11.70;99.90;;;10.90;68.93;102784.44;2569157;30;137004;-42
2022/03/26 08:38:09;;;;;;;;;;;11.80;99.90;;;11.04;69.07;102784.84;2568291;30;139099;-42
2022/03/26 08:40:36;;;;;;;;;;;12.00;99.90;;;11.13;67.11;102786.56;2570891;30;138029;-41
2022/03/26 08:43:06;;;;;;;;;;;12.10;99.90;;;11.29;69.24;102784.88;2570731;30;138767;-41
2022/03/26 08:45:35;;;;;;;;;;;12.20;99.90;;;11.47;68.35;102787.44;2569719;30;136776;-42
2022/03/26 08:48:03;;;;;;;;;;;12.40;99.90;;;11.60;68.04;102790.50;2567461;30;137083;-42
2022/03/26 08:50:30;;;;;;;;;;;12.50;99.90;;;11.74;65.17;102788.13;2570400;30;137218;-42
2022/03/26 08:52:58;;;;;;;;;;;12.60;99.90;;;11.89;64.74;102786.38;2569919;30;138380;-43
2022/03/26 08:55:26;;;;;;;;;;;12.70;99.90;;;11.89;63.75;102791.84;2568695;30;136828;-43
2022/03/26 08:57:54;;;;;;;;;;;12.90;99.40;;;12.00;64.82;102795.25;2569441;30;137611;-41
2022/03/26 09:00:21;;;;;;;;;;;13.00;99.30;;;12.16;64.76;102789.75;2569856;30;136997;-41
2022/03/26 09:02:49;;;;;;;;;;;13.10;99.30;;;12.27;62.33;102795.91;2569662;30;138442;-41
2022/03/26 09:05:17;;;;;;;;;;;13.20;98.10;;;12.48;64.55;102798.91;2570724;30;137893;-42
2022/03/26 09:07:44;;;;;;;;;;;13.40;99.20;;;12.61;64.50;102792.88;2569888;30;138187;-42
2022/03/26 09:10:12;;;;;;;;;;;13.50;99.10;;;12.67;63.41;102799.50;2569693;30;137910;-41
2022/03/26 09:12:39;;;;;;;;;;;13.60;98.50;;;12.79;62.85;102795.34;2571240;30;138255;-43
2022/03/26 09:15:08;;;;;;;;;;;13.70;97.80;;;13.02;64.48;102797.28;2568058;30;137226;-41
2022/03/26 09:17:36;;;;;;;;;;;13.90;99.10;;;13.19;62.40;102792.53;2568826;30;137374;-41
2022/03/26 09:20:08;;;;;;;;;;;14.10;97.70;;;13.40;61.57;102798.38;2571466;30;137869;-41
2022/03/26 09:22:36;;;;;;;;;;;14.20;97.30;;;13.56;59.73;102797.44;2569627;30;138617;-42
2022/03/26 09:25:05;;;;;;;;;;;14.40;96.40;;;13.51;59.48;102798.84;2569137;30;137811;-42
2022/03/26 09:27:32;;;;;;;;;;;14.50;95.40;;;13.62;61.27;102788.44;2570438;30;137894;-42
2022/03/26 09:30:00;;;;;;;;;;;14.60;96.40;;;13.89;60.78;102795.25;2570275;30;137930;-42
2022/03/26 09:32:32;;;;;;;;;;;14.70;96.60;;;13.94;58.60;102798.28;2569780;30;137363;-41
2022/03/26 09:34:59;;;;;;;;;;;14.90;94.90;;;14.13;60.24;102798.78;2566908;30;137060;-42
2022/03/26 09:37:27;;;;;;;;;;;15.00;95.80;;;14.16;58.59;102792.03;2570377;30;137343;-41
2022/03/26 09:39:55;;;;;;;;;;;15.10;94.40;;;14.30;58.07;102791.19;2569818;30;136723;-42
2022/03/26 09:42:24;;;;;;;;;;;15.20;94.60;;;14.35;57.65;102791.47;2570034;30;138628;-42
2022/03/26 09:44:52;;;;;;;;;;;15.30;93.70;;;14.57;58.62;102785.19;2569118;30;136829;-41
2022/03/26 09:47:21;;;;;;;;;;;15.40;94.40;;;14.81;59.43;102790.41;2570723;30;138490;-42
2022/03/26 09:49:48;;;;;;;;;;;15.60;95.20;;;14.77;54.99;102788.25;2570423;30;136917;-41
2022/03/26 09:52:16;;;;;;;;;;;15.80;91.50;;;14.74;54.97;102783.97;2568722;30;138151;-42
2022/03/26 09:54:44;;;;;;;;;;;15.80;91.10;;;14.94;55.47;102792.44;2570094;30;137196;-41
2022/03/26 09:57:11;;;;;;;;;;;15.90;91.50;;;15.03;53.79;102798.69;2569311;30;138987;-43
2022/03/26 09:59:39;;;;;;;;;;;16.00;90.70;;;14.99;51.60;102791.88;2569858;30;137862;-42
2022/03/26 10:02:06;;;;;;;;;;;16.10;86.60;;;15.02;53.11;102790.66;2569915;30;138335;-41
2022/03/26 10:04:41;;;;;;;;;;;16.10;88.80;;;15.15;51.65;102798.19;2570707;30;136981;-41
2022/03/26 10:07:09;;;;;;;;;;;16.20;87.00;;;15.23;50.59;102789.81;2569904;30;137291;-42
2022/03/26 10:09:39;;;;;;;;;;;16.30;85.40;;;15.22;51.96;102796.34;2570305;30;137850;-41
2022/03/26 10:12:26;;;;;;;;;;;16.30;86.30;;;15.28;51.81;102791.97;2568699;30;138955;-42
2022/03/26 10:15:02;;;;;;;;;;;16.30;86.70;;;15.22;49.58;102788.09;2568120;30;136753;-42
2022/03/26 10:17:34;;;;;;;;;;;16.30;83.70;;;15.29;51.39;102778.00;2571529;30;138202;-41
2022/03/26 10:20:10;;;;;;;;;;;16.40;84.80;;;15.27;51.52;102798.53;2569669;30;136948;-41
2022/03/26 10:22:48;;;;;;;;;;;16.40;85.00;;;15.41;51.44;102794.84;2567436;30;138617;-41
2022/03/26 10:25:21;;;;;;;;;;;16.50;84.30;;;15.58;49.84;102789.06;2568020;30;137097;-42
2022/03/26 10:27:55;;;;;;;;;;;16.60;82.90;;;15.67;49.96;102783.22;2570424;30;138432;-41
2022/03/26 10:33:20;;;;;;;;;;;16.80;84.10;;;15.88;49.14;102781.50;2570205;30;138347;-42
2022/03/26 10:35:58;;;;;;;;;;;16.90;81.50;;;15.85;48.64;102784.63;2569288;30;136833;-41
2022/03/26 10:38:28;;;;;;;;;;;17.00;80.60;;;15.75;48.60;102784.97;2569118;30;137491;-41
2022/03/26 10:41:05;;;;;;;;;;;16.90;79.70;;;15.84;48.58;102784.84;2567833;30;137058;-42
2022/03/26 10:43:32;;;;;;;;;;;16.90;80.00;;;15.91;49.02;102778.38;2570885;30;139300;-41
2022/03/26 10:46:01;;;;;;;;;;;17.00;80.90;;;15.99;46.34;102774.59;2569593;30;137035;-41
2022/03/26 10:48:37;;;;;;;;;;;17.00;77.00;;;16.12;45.17;102782.06;2568778;30;138395;-42
2022/03/26 10:51:13;;;;;;;;;;;17.20;76.50;;;16.09;44.88;102776.97;2571501;30;137397;-41
2022/03/26 10:53:42;;;;;;;;;;;17.20;75.70;;;16.08;46.02;102767.03;2569742;30;137715;-41
2022/03/26 10:56:12;;;;;;;;;;;17.20;77.20;;;16.01;46.79;102774.41;2570041;30;137130;-41
2022/03/26 10:58:42;;;;;;;;;;;17.20;77.40;;;15.92;46.81;102768.19;2567159;30;138309;-41
2022/03/26 11:01:10;;;;;;;;;;;17.10;76.60;;;16.03;47.32;102761.28;2568719;30;137062;-42
2022/03/26 11:03:38;;;;;;;;;;;17.20;77.70;;;16.10;45.58;102763.03;2569519;30;138324;-41
2022/03/26 11:06:08;;;;;;;;;;;17.20;75.50;;;16.07;45.76;102768.06;2568633;30;137425;-41
2022/03/26 11:08:37;;;;;;;;;;;17.20;75.20;;;16.29;46.93;102768.00;2569754;30;137164;-41
2022/03/26 11:11:09;;;;;;;;;;;17.30;77.30;;;16.45;46.21;102756.66;2568876;30;137314;-41
2022/03/26 11:13:44;;;;;;;;;;;17.40;76.50;;;16.55;44.85;102764.50;2568134;30;139347;-41
2022/03/26 11:16:23;;;;;;;;;;;17.50;75.80;;;16.42;43.82;102758.94;2568254;30;137777;-43
2022/03/26 11:19:31;;;;;;;;;;;17.50;72.70;;;16.36;45.01;102758.72;2571203;30;138170;-41
2022/03/26 11:22:33;;;;;;;;;;;17.50;74.50;;;16.57;43.64;102756.03;2571060;30;137064;-41